createdAt,value
2023-01-21T00:00:45.716Z,100247.08
2023-01-21T00:01:47.290Z,100248.69
2023-01-21T00:02:50.990Z,100247.88
2023-01-21T00:03:53.243Z,100249.70
2023-01-21T00:04:57.213Z,100250.55
2023-01-21T00:06:00.669Z,100251.05
2023-01-21T00:07:04.585Z,100257.94
2023-01-21T00:08:08.932Z,100259.39
2023-01-21T00:09:14.021Z,100251.78
2023-01-21T00:10:20.220Z,100255.10
2023-01-21T00:11:23.729Z,100260.41
2023-01-21T00:12:26.970Z,100253.83
2023-01-21T00:13:29.164Z,100254.30
2023-01-21T00:14:32.041Z,100254.84
2023-01-21T00:15:36.560Z,100258.27
2023-01-21T00:16:40.008Z,100246.61
2023-01-21T00:17:43.599Z,100254.53
2023-01-21T00:18:47.420Z,100253.73
2023-01-21T00:19:50.725Z,100257.67
2023-01-21T00:20:55.786Z,100254.53
2023-01-21T00:21:59.300Z,100256.25
2023-01-21T00:23:02.587Z,100266.35
2023-01-21T00:24:05.911Z,100273.98
2023-01-21T00:25:10.483Z,100266.74
2023-01-21T00:26:14.884Z,100271.87
2023-01-21T00:27:18.299Z,100266.23
2023-01-21T00:28:22.675Z,100259.08
2023-01-21T00:29:27.011Z,100257.83
2023-01-21T00:30:34.408Z,100254.89
2023-01-21T00:31:38.842Z,100264.71
2023-01-21T00:32:42.289Z,100255.08
2023-01-21T00:33:45.690Z,100252.02
2023-01-21T00:34:49.299Z,100257.41
2023-01-21T00:36:00.028Z,100250.77
2023-01-21T00:37:02.425Z,100249.16
2023-01-21T00:38:05.129Z,100252.06
2023-01-21T00:39:08.015Z,100243.73
2023-01-21T00:40:11.726Z,100253.03
2023-01-21T00:41:15.033Z,100242.97
2023-01-21T00:42:17.699Z,100244.89
2023-01-21T00:43:21.099Z,100247.27
2023-01-21T00:44:26.107Z,100244.79
2023-01-21T00:45:30.404Z,100245.59
2023-01-21T00:46:33.648Z,100251.27
2023-01-21T00:47:37.109Z,100259.59
2023-01-21T00:48:41.010Z,100251.31
2023-01-21T00:49:43.371Z,100251.47
2023-01-21T00:50:46.693Z,100254.69
2023-01-21T00:51:50.184Z,100253.31
2023-01-21T00:52:54.721Z,100253.94
2023-01-21T00:53:58.999Z,100242.37
2023-01-21T00:55:03.819Z,100253.71
2023-01-21T00:56:08.663Z,100250.19
2023-01-21T00:57:14.943Z,100249.70
2023-01-21T00:58:19.571Z,100264.86
2023-01-21T00:59:23.700Z,100263.09
2023-01-21T01:00:28.458Z,100262.91
2023-01-21T01:01:33.509Z,100260.85
2023-01-21T01:02:44.019Z,100271.06
2023-01-21T01:03:47.839Z,100266.63
2023-01-21T01:04:51.147Z,100266.77
2023-01-21T01:05:56.011Z,100262.04
2023-01-21T01:06:58.783Z,100261.75
2023-01-21T01:08:02.293Z,100264.17
2023-01-21T01:09:05.704Z,100260.25
2023-01-21T01:10:09.287Z,100264.81
2023-01-21T01:11:13.538Z,100267.33
2023-01-21T01:12:17.254Z,100270.20
2023-01-21T01:13:20.962Z,100272.88
2023-01-21T01:14:24.261Z,100265.06
2023-01-21T01:15:28.641Z,100267.91
2023-01-21T01:16:32.309Z,100265.38
2023-01-21T09:28:03.863Z,100461.39
2023-01-21T09:29:07.721Z,100464.25
2023-01-21T09:30:11.522Z,100470.80
2023-01-21T09:31:16.579Z,100465.97
2023-01-21T09:32:36.851Z,100459.67
2023-01-21T09:33:42.649Z,100464.11
2023-01-21T09:34:46.885Z,100459.36
2023-01-21T09:35:56.610Z,100465.88
2023-01-21T09:37:00.149Z,100460.63
2023-01-21T09:38:04.357Z,100467.86
2023-01-21T09:39:08.332Z,100465.23
2023-01-21T09:40:13.776Z,100445.34
2023-01-21T09:41:25.953Z,100456.95
2023-01-21T09:42:30.086Z,100470.67
2023-01-21T09:43:36.193Z,100470.31
2023-01-21T09:44:46.858Z,100449.72
2023-01-21T09:45:51.219Z,100470.16
2023-01-21T09:47:09.302Z,100462.90
2023-01-21T09:48:14.444Z,100438.89
2023-01-21T09:49:22.870Z,100449.39
2023-01-21T09:50:25.538Z,100449.06
2023-01-21T09:51:31.867Z,100449.92
2023-01-21T09:52:46.894Z,100441.14
2023-01-21T09:53:51.816Z,100445.00
2023-01-21T09:54:55.868Z,100453.50
2023-01-21T09:56:02.282Z,100449.63
2023-01-21T09:57:19.686Z,100452.16
2023-01-21T09:58:27.884Z,100463.61
2023-01-21T09:59:35.147Z,100458.66
2023-01-21T10:00:42.091Z,100456.12
2023-01-21T10:01:47.863Z,100444.48
2023-01-21T10:02:55.065Z,100436.04
2023-01-21T10:04:03.073Z,100450.07
2023-01-21T10:05:09.307Z,100444.95
2023-01-21T10:06:31.061Z,100445.58
2023-01-21T10:07:35.726Z,100446.19
2023-01-21T10:08:56.658Z,100451.16
2023-01-21T10:10:02.070Z,100447.56
2023-01-21T10:11:13.275Z,100451.02
2023-01-21T10:12:18.429Z,100452.62
2023-01-21T13:33:08.004Z,100609.01
2023-01-21T13:34:14.225Z,100620.94
2023-01-21T13:35:24.722Z,100621.05
2023-01-21T13:36:48.400Z,100616.52
2023-01-21T13:38:01.820Z,100613.81
2023-01-21T13:39:06.149Z,100608.06
2023-01-21T13:40:21.051Z,100609.55
2023-01-21T13:41:39.387Z,100621.79
2023-01-21T13:42:44.659Z,100613.23
2023-01-21T13:43:55.823Z,100614.75
2023-01-21T13:45:04.212Z,100623.80
2023-01-21T13:46:12.386Z,100625.70
2023-01-21T13:47:28.559Z,100625.36
2023-01-21T13:48:39.713Z,100626.26
2023-01-21T13:49:46.590Z,100625.05
2023-01-21T13:51:06.923Z,100624.84
2023-01-21T13:52:17.066Z,100630.25
2023-01-21T13:53:28.988Z,100630.80
2023-01-21T13:54:41.193Z,100633.77
2023-01-21T13:56:04.400Z,100636.75
2023-01-21T13:57:22.156Z,100626.38
2023-01-21T13:58:33.164Z,100636.35
2023-01-21T13:59:41.300Z,100637.30
2023-01-21T14:00:46.056Z,100631.11
2023-01-21T14:01:51.135Z,100637.99
2023-01-21T14:03:00.249Z,100638.93
2023-01-21T14:04:04.260Z,100648.72
2023-01-21T14:05:13.102Z,100646.68
2023-01-21T14:06:20.837Z,100644.06
2023-01-21T14:07:31.946Z,100656.78
2023-01-21T14:08:36.998Z,100654.39
2023-01-21T14:09:45.193Z,100656.98
2023-01-21T14:10:49.331Z,100658.70
2023-01-21T14:12:12.499Z,100662.33
2023-01-21T14:13:35.629Z,100670.08
2023-01-21T14:14:39.844Z,100675.59
2023-01-21T14:15:57.055Z,100669.14
2023-01-21T14:17:01.360Z,100670.95
2023-01-21T14:18:20.126Z,100671.42
2023-01-21T14:19:29.212Z,100670.00
2023-01-21T14:20:37.184Z,100680.75
2023-01-21T14:21:45.147Z,100683.56
2023-01-21T14:23:08.719Z,100679.93
2023-01-21T14:24:30.609Z,100674.50
2023-01-21T14:25:49.886Z,100683.27
2023-01-21T14:26:56.410Z,100680.49
2023-01-21T14:28:18.813Z,100688.47
2023-01-21T14:29:24.828Z,100677.83
2023-01-21T14:30:33.743Z,100686.33
2023-01-21T14:31:43.476Z,100684.05
2023-01-21T14:33:00.529Z,100684.23
2023-01-21T14:34:06.676Z,100693.04
2023-01-21T14:35:13.810Z,100694.08
2023-01-21T14:36:25.052Z,100691.34
2023-01-21T14:37:31.457Z,100691.30
2023-01-21T14:38:38.303Z,100695.20
2023-01-21T14:39:42.972Z,100691.69
2023-01-21T14:40:49.611Z,100698.34
2023-01-21T14:41:59.250Z,100694.78
2023-01-21T14:43:03.537Z,100698.12
2023-01-21T14:44:08.676Z,100704.22
2023-01-21T14:45:13.779Z,100701.09
2023-01-21T14:46:24.775Z,100700.19
2023-01-21T14:47:34.385Z,100706.92
2023-01-21T14:48:42.439Z,100700.34
2023-01-21T14:49:47.524Z,100707.08
2023-01-21T14:50:54.779Z,100703.78
2023-01-21T14:51:59.228Z,100708.02
2023-01-21T14:53:04.404Z,100702.54
2023-01-21T14:54:18.981Z,100708.91
2023-01-21T14:55:28.951Z,100710.25
2023-01-21T14:56:35.903Z,100709.11
2023-01-21T14:57:40.574Z,100711.19
2023-01-21T14:58:48.438Z,100715.84
2023-01-21T14:59:52.964Z,100713.14
2023-01-21T15:00:56.520Z,100719.44
2023-01-21T15:02:02.189Z,100719.33
2023-01-21T15:03:16.952Z,100713.34
2023-01-21T15:04:22.060Z,100725.28
2023-01-21T15:05:26.935Z,100716.39
2023-01-21T15:06:30.531Z,100719.28
2023-01-21T15:07:38.968Z,100716.86
2023-01-21T15:08:46.355Z,100727.19
2023-01-21T15:09:50.681Z,100727.87
2023-01-21T15:11:02.004Z,100730.06
2023-01-21T15:12:06.346Z,100738.72
2023-01-21T15:13:22.802Z,100738.13
2023-01-21T15:14:28.700Z,100736.64
2023-01-21T15:15:34.500Z,100734.92
2023-01-21T15:16:39.848Z,100747.67
2023-01-21T15:17:47.764Z,100745.79
2023-01-21T15:19:09.320Z,100750.05
2023-01-21T15:20:31.867Z,100751.41
2023-01-21T15:21:44.981Z,100750.91
2023-01-21T15:22:50.002Z,100760.14
2023-01-21T15:23:53.279Z,100758.38
2023-01-21T15:25:17.879Z,100762.81
2023-01-21T15:26:24.426Z,100767.25
2023-01-21T15:27:28.958Z,100770.48
2023-01-21T15:28:46.337Z,100781.39
2023-01-21T15:30:00.228Z,100777.86
2023-01-21T15:31:05.244Z,100784.38
2023-01-21T15:32:25.985Z,100792.02
2023-01-21T15:33:31.803Z,100788.84
2023-01-21T15:34:37.775Z,100791.53
2023-01-21T15:35:41.648Z,100785.50
2023-01-21T15:36:49.939Z,100786.64
2023-01-21T15:37:56.994Z,100785.39
2023-01-21T15:39:02.565Z,100784.30
2023-01-21T15:40:25.523Z,100792.13
2023-01-21T15:41:29.537Z,100794.25
2023-01-21T15:42:46.738Z,100791.74
2023-01-21T15:43:53.165Z,100796.99
2023-01-21T15:45:17.629Z,100799.87
2023-01-21T15:46:24.550Z,100796.06
2023-01-21T15:47:32.718Z,100795.45
2023-01-21T15:48:46.969Z,100798.75
2023-01-21T15:49:53.823Z,100807.33
2023-01-21T15:51:03.209Z,100805.64
2023-01-21T15:52:08.360Z,100804.75
2023-01-21T15:53:31.071Z,100802.00
2023-01-21T15:54:35.209Z,100801.92
2023-01-21T15:55:43.572Z,100813.41
2023-01-21T15:56:49.522Z,100805.48
2023-01-21T15:57:55.564Z,100805.14
2023-01-21T15:59:01.589Z,100804.20
2023-01-21T16:00:23.070Z,100810.34
2023-01-21T16:01:37.640Z,100804.00
2023-01-21T16:02:46.901Z,100814.50
2023-01-21T16:04:10.516Z,100809.41
2023-01-21T16:05:27.709Z,100811.84
2023-01-21T16:06:32.569Z,100812.88
2023-01-21T16:07:43.807Z,100806.43
2023-01-21T16:08:50.649Z,100822.45
2023-01-21T16:10:01.877Z,100812.50
2023-01-21T16:11:18.643Z,100812.89
2023-01-21T16:12:38.723Z,100819.08
2023-01-21T16:13:43.005Z,100824.84
2023-01-21T16:14:51.320Z,100818.30
2023-01-21T16:15:55.468Z,100817.32
2023-01-21T16:17:15.664Z,100813.28
2023-01-21T16:18:30.971Z,100817.13
2023-01-21T16:19:36.147Z,100818.61
2023-01-21T16:20:41.321Z,100826.96
2023-01-21T16:21:46.814Z,100823.28
2023-01-21T16:22:52.500Z,100833.07
2023-01-21T16:23:57.789Z,100838.28
2023-01-21T16:25:02.953Z,100840.67
2023-01-21T16:26:06.675Z,100846.59
2023-01-21T16:27:20.422Z,100839.61
2023-01-21T16:28:24.031Z,100843.27
2023-01-21T16:29:27.427Z,100845.02
2023-01-21T16:30:32.359Z,100848.62
2023-01-21T16:31:37.468Z,100848.59
2023-01-21T16:32:44.068Z,100852.31
2023-01-21T16:33:46.766Z,100852.12
2023-01-21T16:34:51.049Z,100854.94
2023-01-21T16:35:56.564Z,100854.03
2023-01-21T16:37:01.145Z,100847.92
2023-01-21T16:38:04.450Z,100857.64
2023-01-21T16:39:08.689Z,100855.20
2023-01-21T16:40:14.759Z,100855.02
2023-01-21T16:41:20.784Z,100860.68
2023-01-21T16:42:31.553Z,100857.72
2023-01-21T16:43:36.667Z,100855.95
2023-01-21T16:44:40.104Z,100862.29
2023-01-21T16:45:44.235Z,100862.52
2023-01-21T16:46:49.516Z,100854.87
2023-01-21T16:48:01.226Z,100859.81
2023-01-21T16:49:06.874Z,100860.11
2023-01-21T16:50:19.988Z,100857.71
2023-01-21T16:51:28.646Z,100862.27
2023-01-21T16:52:33.638Z,100864.65
2023-01-21T16:53:37.080Z,100866.11
2023-01-21T16:54:42.401Z,100867.98
2023-01-21T16:55:47.791Z,100873.05
2023-01-21T16:56:52.289Z,100868.95
2023-01-21T16:58:00.568Z,100869.56
2023-01-21T16:59:03.899Z,100873.95
2023-01-21T17:00:10.200Z,100870.53
2023-01-21T17:01:19.629Z,100870.14
2023-01-21T17:02:26.214Z,100864.83
2023-01-21T17:03:30.574Z,100871.55
2023-01-21T17:04:33.759Z,100877.44
2023-01-21T17:05:38.159Z,100876.42
2023-01-21T17:06:42.313Z,100871.55
2023-01-21T17:07:48.869Z,100873.41
2023-01-21T17:08:54.666Z,100881.03
2023-01-21T17:10:01.103Z,100884.55
2023-01-21T17:11:06.682Z,100873.91
2023-01-21T17:12:12.938Z,100883.69
2023-01-21T17:13:16.816Z,100878.19
2023-01-21T17:14:22.826Z,100887.03
2023-01-21T17:15:32.008Z,100886.39
2023-01-21T17:16:36.104Z,100883.95
2023-01-21T17:17:39.728Z,100886.42
2023-01-21T17:18:46.159Z,100884.63
2023-01-21T17:19:54.426Z,100885.23
2023-01-21T17:21:08.723Z,100886.50
2023-01-21T17:22:18.711Z,100880.46
2023-01-21T17:23:25.248Z,100882.94
2023-01-21T17:24:30.303Z,100882.50
2023-01-21T17:25:35.441Z,100889.70
2023-01-21T17:26:40.446Z,100894.22
2023-01-21T17:27:48.805Z,100902.34
2023-01-21T17:28:55.968Z,100895.48
2023-01-21T17:30:17.084Z,100904.58
2023-01-21T17:31:25.377Z,100898.43
2023-01-21T17:32:33.197Z,100901.80
2023-01-21T17:33:37.421Z,100900.34
2023-01-21T17:34:42.057Z,100896.12
2023-01-21T17:35:47.565Z,100910.80
2023-01-21T17:36:55.580Z,100916.22
2023-01-21T17:38:00.409Z,100909.11
2023-01-21T17:39:05.065Z,100911.91
2023-01-21T17:40:10.252Z,100917.70
2023-01-21T17:42:36.480Z,100910.51
2023-01-21T17:43:40.807Z,100921.98
2023-01-21T17:44:45.809Z,100914.73
2023-01-21T17:45:49.954Z,100922.58
2023-01-21T17:46:54.696Z,100923.98
2023-01-21T17:48:11.016Z,100920.39
2023-01-21T17:49:09.338Z,100921.83
2023-01-21T17:50:20.439Z,100927.12
2023-01-21T17:51:25.786Z,100925.67
2023-01-21T17:52:29.861Z,100937.14
2023-01-21T17:53:40.255Z,100929.89
2023-01-21T17:54:43.652Z,100933.27
2023-01-21T17:55:48.289Z,100937.55
2023-01-21T17:56:53.188Z,100931.50
2023-01-21T17:57:56.257Z,100933.19
2023-01-21T17:59:03.366Z,100927.12
2023-01-21T18:00:11.205Z,100931.82
2023-01-21T18:01:15.655Z,100937.58
2023-01-21T18:02:18.869Z,100935.96
2023-01-21T18:03:22.872Z,100937.69
2023-01-21T18:04:26.126Z,100940.20
2023-01-21T18:05:30.300Z,100934.88
2023-01-21T18:06:34.428Z,100945.45
2023-01-21T18:07:38.683Z,100946.28
2023-01-21T18:08:41.983Z,100943.33
2023-01-21T18:09:47.232Z,100943.33
2023-01-21T18:10:53.155Z,100939.80
2023-01-21T18:11:57.713Z,100947.17
2023-01-21T18:13:00.281Z,100941.83
2023-01-21T18:14:03.871Z,100944.34
2023-01-21T18:15:07.900Z,100943.03
2023-01-21T18:16:11.747Z,100947.50
2023-01-21T18:17:16.800Z,100940.92
2023-01-21T18:18:27.386Z,100947.50
2023-01-21T18:19:32.473Z,100944.98
2023-01-21T18:20:36.809Z,100940.77
2023-01-21T18:21:39.372Z,100949.41
2023-01-21T18:22:43.506Z,100950.91
2023-01-21T18:23:47.094Z,100953.53
2023-01-21T18:24:49.459Z,100948.77
2023-01-21T18:25:53.814Z,100942.62
2023-01-21T18:27:00.008Z,100943.86
2023-01-21T18:28:04.269Z,100945.13
2023-01-21T18:29:09.308Z,100951.28
2023-01-21T18:30:17.233Z,100947.72
2023-01-21T18:31:20.902Z,100950.05
2023-01-21T18:32:23.404Z,100955.19
2023-01-21T18:33:25.707Z,100955.30
2023-01-21T18:34:30.967Z,100958.22
2023-01-21T18:35:34.331Z,100953.61
2023-01-21T18:36:38.973Z,100955.27
2023-01-21T18:37:41.244Z,100950.76
2023-01-21T18:38:45.584Z,100953.45
2023-01-21T18:39:48.668Z,100960.27
2023-01-21T18:40:51.330Z,100960.16
2023-01-21T18:41:56.285Z,100964.15
2023-01-21T18:42:59.817Z,100959.05
2023-01-21T18:44:02.169Z,100970.16
2023-01-21T18:45:06.092Z,100961.45
2023-01-21T18:46:15.837Z,100965.12
2023-01-21T18:47:21.090Z,100972.09
2023-01-21T18:48:26.164Z,100972.70
2023-01-21T18:49:29.856Z,100979.11
2023-01-21T18:50:32.287Z,100983.89
2023-01-21T18:51:35.670Z,100983.53
2023-01-21T18:52:39.182Z,100978.63
2023-01-21T18:53:42.581Z,100972.78
2023-01-21T18:54:45.888Z,100982.52
2023-01-21T18:55:50.951Z,100976.37
2023-01-21T18:56:55.404Z,100980.05
2023-01-21T18:57:59.564Z,100983.13
2023-01-21T18:59:04.749Z,100978.59
2023-01-21T19:00:09.519Z,100976.16
2023-01-21T19:01:22.451Z,100976.19
2023-01-21T19:02:20.524Z,100981.45
2023-01-21T19:03:23.955Z,100984.00
2023-01-21T19:04:27.363Z,100994.57
2023-01-21T19:05:36.494Z,100986.59
2023-01-21T19:06:39.913Z,100983.17
2023-01-21T19:07:43.671Z,100986.70
2023-01-21T19:08:49.076Z,100987.03
2023-01-21T19:09:52.282Z,100994.24
2023-01-21T19:10:55.898Z,100988.42
2023-01-21T19:11:58.561Z,100999.75
2023-01-21T19:13:01.876Z,100996.94
2023-01-21T19:14:04.959Z,100995.55
2023-01-21T19:15:11.707Z,100993.20
2023-01-21T19:16:18.831Z,100999.25
2023-01-21T19:17:25.606Z,100995.55
2023-01-21T19:18:28.823Z,101006.02
2023-01-21T19:19:33.138Z,101013.81
2023-01-21T19:20:38.185Z,101008.64
2023-01-21T19:21:41.856Z,101006.77
2023-01-21T19:22:46.575Z,101006.63
2023-01-21T19:23:49.797Z,101009.28
2023-01-21T19:24:53.406Z,101012.84
2023-01-21T19:25:57.963Z,101012.92
2023-01-21T19:27:01.337Z,101013.95
2023-01-21T19:28:05.346Z,101002.38
2023-01-21T19:29:10.101Z,101009.06
2023-01-21T19:30:22.702Z,101021.52
2023-01-21T19:31:26.866Z,101024.07
2023-01-21T19:32:30.569Z,101027.77
2023-01-21T19:33:34.822Z,101023.24
2023-01-21T19:35:52.764Z,101025.80
2023-01-21T19:36:56.607Z,101030.36
2023-01-21T19:38:00.915Z,101032.73
2023-01-21T19:39:04.199Z,101036.19
2023-01-21T19:40:18.009Z,101039.68
2023-01-21T19:41:21.704Z,101042.12
2023-01-21T19:42:25.181Z,101041.63
2023-01-21T19:43:27.848Z,101036.73
2023-01-21T19:44:33.178Z,101034.92
2023-01-21T19:45:36.842Z,101029.89
2023-01-21T19:46:41.267Z,101031.91
2023-01-21T19:47:46.567Z,101032.73
2023-01-21T19:48:51.984Z,101037.52
2023-01-21T19:49:56.406Z,101044.14
2023-01-21T19:50:59.303Z,101043.28
2023-01-21T19:52:02.886Z,101040.11
2023-01-21T19:53:07.835Z,101036.38
2023-01-21T19:54:11.468Z,101038.17
2023-01-21T19:55:14.859Z,101040.58
2023-01-21T19:56:21.332Z,101039.25
2023-01-21T19:57:24.585Z,101050.51
2023-01-21T19:58:31.853Z,101052.34
2023-01-21T19:59:35.776Z,101041.73
2023-01-21T20:00:40.778Z,101045.05
2023-01-21T20:01:44.900Z,101047.84
2023-01-21T20:02:47.740Z,101047.84
2023-01-21T20:04:00.238Z,101058.39
2023-01-21T20:04:59.855Z,101058.45
2023-01-21T20:06:05.385Z,101052.89
2023-01-21T20:07:10.651Z,101053.53
2023-01-21T20:08:15.831Z,101052.06
2023-01-21T20:09:20.008Z,101060.84
2023-01-21T20:10:28.193Z,101059.66
2023-01-21T20:11:37.794Z,101053.13
2023-01-21T20:12:44.400Z,101057.31
2023-01-21T20:13:47.766Z,101064.78
2023-01-21T20:14:51.600Z,101067.20
2023-01-21T20:15:54.058Z,101066.33
2023-01-21T20:17:00.148Z,101065.12
2023-01-21T20:18:05.570Z,101066.27
2023-01-21T20:19:11.989Z,101069.06
2023-01-21T20:20:23.734Z,101060.98
2023-01-21T20:21:25.988Z,101064.80
2023-01-21T20:22:32.084Z,101065.77
2023-01-21T20:23:37.929Z,101065.91
2023-01-21T20:24:41.337Z,101063.94
2023-01-21T20:25:47.001Z,101069.00
2023-01-21T20:26:49.886Z,101069.91
2023-01-21T20:27:55.162Z,101073.94
2023-01-21T20:29:03.262Z,101061.70
2023-01-21T20:30:15.901Z,101071.55
2023-01-21T20:31:12.560Z,101074.11
2023-01-21T20:32:15.370Z,101076.94
2023-01-21T20:33:23.123Z,101081.16
2023-01-21T20:34:35.026Z,101079.53
2023-01-21T20:35:41.971Z,101082.23
2023-01-21T20:36:47.009Z,101086.65
2023-01-21T20:37:52.126Z,101084.05
2023-01-21T20:38:55.906Z,101090.50
2023-01-21T20:39:59.722Z,101084.92
2023-01-21T20:41:03.878Z,101088.34
2023-01-21T20:42:07.144Z,101085.69
2023-01-21T20:43:10.906Z,101090.83
2023-01-21T20:44:14.265Z,101087.89
2023-01-21T20:45:19.021Z,101093.11
2023-01-21T20:46:24.083Z,101090.70
2023-01-21T20:47:38.066Z,101092.52
2023-01-21T20:48:35.492Z,101098.81
2023-01-21T20:49:38.996Z,101099.14
2023-01-21T20:50:43.545Z,101104.46
2023-01-21T20:51:45.787Z,101104.00
2023-01-21T20:52:49.843Z,101105.19
2023-01-21T20:53:58.238Z,101100.67
2023-01-21T20:55:04.197Z,101109.65
2023-01-21T20:56:21.755Z,101113.00
2023-01-21T20:57:24.943Z,101109.31
2023-01-21T20:58:30.039Z,101114.56
2023-01-21T20:59:34.657Z,101122.51
2023-01-21T21:00:38.573Z,101123.50
2023-01-21T21:01:41.811Z,101121.02
2023-01-21T21:02:46.091Z,101125.00
2023-01-21T21:03:50.578Z,101121.31
2023-01-21T21:04:54.067Z,101121.20
2023-01-21T21:05:59.926Z,101125.53
2023-01-21T21:07:03.234Z,101128.78
2023-01-21T21:08:06.430Z,101127.36
2023-01-21T21:09:09.764Z,101131.71
2023-01-21T21:10:15.312Z,101130.09
2023-01-21T21:11:19.167Z,101128.56
2023-01-21T21:12:22.370Z,101137.37
2023-01-21T21:13:28.122Z,101132.44
2023-01-21T21:14:34.338Z,101129.55
2023-01-21T21:15:39.115Z,101137.89
2023-01-21T21:16:45.551Z,101135.23
2023-01-21T21:17:50.891Z,101132.84
2023-01-21T21:18:54.732Z,101132.91
2023-01-21T21:19:56.959Z,101134.44
2023-01-21T21:21:00.284Z,101136.34
2023-01-21T21:22:03.496Z,101133.41
2023-01-21T21:23:06.949Z,101139.59
2023-01-21T21:24:09.680Z,101139.70
2023-01-21T21:25:15.366Z,101131.58
2023-01-21T21:26:25.593Z,101142.39
2023-01-21T21:27:37.108Z,101136.20
2023-01-21T21:28:42.228Z,101137.23
2023-01-21T21:29:45.349Z,101141.52
2023-01-21T21:30:48.230Z,101142.48
2023-01-21T21:31:52.569Z,101145.70
2023-01-21T21:32:56.465Z,101145.30
2023-01-21T21:33:59.724Z,101148.83
2023-01-21T21:35:02.790Z,101150.09
2023-01-21T21:36:06.375Z,101153.95
2023-01-21T21:37:11.444Z,101152.80
2023-01-21T21:38:16.549Z,101150.16
2023-01-21T21:39:20.261Z,101152.83
2023-01-21T21:40:25.355Z,101156.22
2023-01-21T21:41:46.749Z,101146.58
2023-01-21T21:43:07.554Z,101159.05
2023-01-21T21:44:11.795Z,101147.34
2023-01-21T21:45:14.943Z,101157.57
2023-01-21T21:46:39.649Z,101162.55
2023-01-21T21:48:00.584Z,101157.44
2023-01-21T21:49:15.169Z,101154.67
2023-01-21T21:50:18.743Z,101158.47
2023-01-21T21:51:24.151Z,101161.06
2023-01-21T21:52:27.405Z,101168.11
2023-01-21T21:53:29.985Z,101164.48
2023-01-21T21:54:33.231Z,101165.31
2023-01-21T21:55:36.435Z,101160.83
2023-01-21T21:56:39.616Z,101166.84
2023-01-21T21:57:43.714Z,101177.38
2023-01-21T21:58:47.345Z,101169.32
2023-01-21T21:59:51.360Z,101168.39
2023-01-21T22:00:57.681Z,101179.84
2023-01-21T22:02:01.055Z,101173.82
2023-01-21T22:03:07.407Z,101174.75
2023-01-21T22:04:10.554Z,101179.11
2023-01-21T22:05:13.385Z,101176.31
2023-01-21T22:06:17.512Z,101179.00
2023-01-21T22:07:22.462Z,101179.87
2023-01-21T22:08:26.881Z,101178.14
2023-01-21T22:09:29.551Z,101180.11
2023-01-21T22:10:32.791Z,101176.63
2023-01-21T22:11:37.129Z,101180.73
2023-01-21T22:12:40.217Z,101170.73
2023-01-21T22:13:48.379Z,101174.08
2023-01-21T22:14:50.400Z,101175.70
2023-01-21T22:15:57.417Z,101173.75
2023-01-21T22:17:00.764Z,101177.13
2023-01-21T22:18:04.168Z,101173.68
2023-01-21T22:19:07.488Z,101189.56
2023-01-21T22:20:13.829Z,101174.61
2023-01-21T22:21:24.534Z,101175.70
2023-01-21T22:22:28.125Z,101182.36
2023-01-21T22:23:31.929Z,101181.38
2023-01-21T22:24:35.904Z,101188.81
2023-01-21T22:25:39.277Z,101192.45
2023-01-21T22:26:42.553Z,101184.30
2023-01-21T22:27:44.959Z,101192.02
2023-01-21T22:28:48.128Z,101185.85
2023-01-21T22:29:51.359Z,101188.73
2023-01-21T22:30:53.876Z,101184.98
2023-01-21T22:31:57.275Z,101190.20
2023-01-21T22:33:00.476Z,101191.75
2023-01-21T22:34:03.544Z,101193.78
2023-01-21T22:35:06.250Z,101195.72
2023-01-21T22:36:11.969Z,101187.50
2023-01-21T22:37:15.345Z,101192.43
2023-01-21T22:38:19.960Z,101188.63
2023-01-21T22:39:26.978Z,101192.95
2023-01-21T22:40:32.922Z,101193.37
2023-01-21T22:41:36.467Z,101195.92
2023-01-21T22:42:39.548Z,101201.97
2023-01-21T22:43:44.737Z,101202.72
2023-01-21T22:44:48.061Z,101200.99
2023-01-21T22:45:53.102Z,101199.45
2023-01-21T22:46:56.495Z,101201.09
2023-01-21T22:47:58.984Z,101209.73
2023-01-21T22:49:03.251Z,101201.67
2023-01-21T22:50:07.055Z,101205.02
2023-01-21T22:51:12.999Z,101202.34
2023-01-21T22:52:16.264Z,101198.09
2023-01-21T22:53:20.397Z,101205.05
2023-01-21T22:54:23.635Z,101200.62
2023-01-21T22:55:26.158Z,101205.95
2023-01-21T22:56:49.977Z,101209.41
2023-01-21T22:57:34.733Z,101214.55
2023-01-21T22:58:38.211Z,101213.88
2023-01-21T22:59:41.481Z,101208.62
2023-01-21T23:00:44.912Z,101217.19
2023-01-21T23:01:48.233Z,101215.34
2023-01-21T23:02:51.611Z,101210.02
2023-01-21T23:03:53.767Z,101217.00
2023-01-21T23:04:57.137Z,101221.55
2023-01-21T23:06:19.812Z,101217.19
2023-01-21T23:07:22.929Z,101218.84
2023-01-21T23:08:25.187Z,101222.30
2023-01-21T23:09:29.577Z,101225.08
2023-01-21T23:10:35.204Z,101225.51
2023-01-21T23:11:37.691Z,101229.36
2023-01-21T23:12:44.003Z,101221.84
2023-01-21T23:13:49.367Z,101232.39
2023-01-21T23:14:52.146Z,101230.52
2023-01-21T23:15:55.836Z,101226.84
2023-01-21T23:17:01.842Z,101229.17
2023-01-21T23:18:05.442Z,101235.23
2023-01-21T23:19:08.660Z,101230.98
2023-01-21T23:20:13.129Z,101242.25
2023-01-21T23:21:17.690Z,101238.30
2023-01-21T23:22:20.953Z,101240.89
2023-01-21T23:23:25.936Z,101237.07
2023-01-21T23:24:30.043Z,101231.05
2023-01-21T23:25:35.161Z,101241.72
2023-01-21T23:26:38.547Z,101242.77
2023-01-21T23:27:41.834Z,101249.86
2023-01-21T23:28:44.360Z,101245.33
2023-01-21T23:29:47.576Z,101247.05
2023-01-21T23:30:50.924Z,101251.16
2023-01-21T23:31:54.693Z,101251.48
2023-01-21T23:32:57.910Z,101262.15
2023-01-21T23:34:01.230Z,101256.02
2023-01-21T23:35:04.827Z,101256.81
2023-01-21T23:36:12.569Z,101260.42
2023-01-21T23:37:15.887Z,101261.21
2023-01-21T23:38:20.307Z,101259.55
2023-01-21T23:39:22.832Z,101259.41
2023-01-21T23:40:25.024Z,101263.22
2023-01-21T23:41:28.144Z,101261.48
2023-01-21T23:42:31.186Z,101272.11
2023-01-21T23:43:35.184Z,101268.89
2023-01-21T23:44:38.519Z,101259.24
2023-01-21T23:45:42.407Z,101268.02
2023-01-21T23:46:45.476Z,101273.31
2023-01-21T23:47:48.830Z,101269.59
2023-01-21T23:48:52.004Z,101267.92
2023-01-21T23:49:55.089Z,101272.22
2023-01-21T23:51:01.188Z,101275.02
2023-01-21T23:52:06.143Z,101275.70
2023-01-21T23:53:09.407Z,101283.49
2023-01-21T23:54:13.311Z,101276.50
2023-01-21T23:55:16.129Z,101277.37
2023-01-21T23:56:23.434Z,101276.44
2023-01-21T23:57:26.461Z,101283.11
2023-01-21T23:58:29.013Z,101283.22
2023-01-21T23:59:32.312Z,101285.78
